createdAt,value
2019-05-20T00:02:24.716Z,54.73
2019-05-20T00:07:23.630Z,54.88
2019-05-20T00:12:25.717Z,54.73
2019-05-20T00:17:27.850Z,54.91
2019-05-20T00:22:29.954Z,55.04
2019-05-20T00:27:32.054Z,55.18
2019-05-20T00:32:40.989Z,55.18
2019-05-20T00:37:38.623Z,55.16
2019-05-20T00:42:40.800Z,55.27
2019-05-20T00:47:42.854Z,54.97
2019-05-20T00:52:44.919Z,55.05
2019-05-20T00:57:47.091Z,54.85
2019-05-20T01:02:56.414Z,54.99
2019-05-20T01:07:53.197Z,54.62
2019-05-20T01:12:55.346Z,54.88
2019-05-20T01:17:57.469Z,55.08
2019-05-20T01:22:59.653Z,55.03
2019-05-20T01:28:01.713Z,54.97
2019-05-20T01:33:13.209Z,55.12
2019-05-20T01:38:07.724Z,55.46
2019-05-20T01:43:09.817Z,55.72
2019-05-20T01:48:11.897Z,55.87
2019-05-20T01:53:13.951Z,55.98
2019-05-20T01:58:16.016Z,55.92
2019-05-20T02:03:30.931Z,56.10
2019-05-20T02:08:22.086Z,56.36
2019-05-20T02:13:26.630Z,56.45
2019-05-20T02:18:28.717Z,56.56
2019-05-20T02:23:30.755Z,56.63
2019-05-20T02:28:32.857Z,56.77
2019-05-20T02:33:51.063Z,57.07
2019-05-20T02:38:38.980Z,57.43
2019-05-20T02:43:41.032Z,57.65
2019-05-20T02:48:43.117Z,57.86
2019-05-20T02:53:45.175Z,58.05
2019-05-20T02:58:47.322Z,58.17
2019-05-20T03:03:49.422Z,58.58
2019-05-20T03:08:51.529Z,58.75
2019-05-20T03:13:53.618Z,58.98
2019-05-20T03:18:55.716Z,59.38
2019-05-20T03:23:59.022Z,59.82
2019-05-20T03:29:01.946Z,60.24
2019-05-20T03:34:04.322Z,60.27
2019-05-20T03:39:06.495Z,60.29
2019-05-20T03:44:08.626Z,60.49
2019-05-20T03:49:10.716Z,60.60
2019-05-20T03:54:12.803Z,60.97
2019-05-20T03:59:14.980Z,61.34
2019-05-20T04:04:18.402Z,61.59
2019-05-20T04:09:20.535Z,61.81
2019-05-20T04:14:22.624Z,61.86
2019-05-20T04:19:24.807Z,61.79
2019-05-20T04:24:27.150Z,61.62
2019-05-20T04:29:31.069Z,61.59
2019-05-20T04:34:33.237Z,61.58
2019-05-20T04:39:35.430Z,61.45
2019-05-20T04:44:39.817Z,61.21
2019-05-20T04:56:48.811Z,60.54
2019-05-20T05:01:51.129Z,59.09
2019-05-20T05:06:55.077Z,55.33
2019-05-20T05:11:57.189Z,54.09
2019-05-20T05:16:59.873Z,53.98
2019-05-20T05:22:02.059Z,51.39
2019-05-20T05:27:04.853Z,50.67
2019-05-20T05:32:06.978Z,52.43
2019-05-20T05:37:09.055Z,52.32
2019-05-20T05:42:11.128Z,51.84
2019-05-20T05:47:13.252Z,49.05
2019-05-20T05:52:15.347Z,44.25
2019-05-20T05:57:17.410Z,46.09
2019-05-20T06:02:22.340Z,45.41
2019-05-20T06:07:24.446Z,42.74
2019-05-20T06:12:26.424Z,41.32
2019-05-20T06:17:28.817Z,41.58
2019-05-20T06:22:32.612Z,42.92
2019-05-20T06:27:34.903Z,43.55
2019-05-20T06:32:37.123Z,45.42
2019-05-20T06:37:42.676Z,46.04
2019-05-20T06:42:44.704Z,46.76
2019-05-20T06:47:46.792Z,47.36
2019-05-20T06:52:49.296Z,48.00
2019-05-20T06:57:51.360Z,46.59
2019-05-20T07:02:53.465Z,47.80
2019-05-20T07:07:55.497Z,48.36
2019-05-20T07:12:57.619Z,49.13
2019-05-20T07:17:59.688Z,49.81
2019-05-20T07:23:04.137Z,49.80
2019-05-20T07:28:06.233Z,49.28
2019-05-20T07:33:08.336Z,47.02
2019-05-20T07:38:19.147Z,46.63
2019-05-20T07:43:24.486Z,47.02
2019-05-20T07:48:27.586Z,46.75
2019-05-20T07:53:31.018Z,46.62
2019-05-20T07:58:35.890Z,46.10
2019-05-20T08:03:38.809Z,45.38
2019-05-20T08:08:43.411Z,44.99
2019-05-20T08:13:45.566Z,45.76
2019-05-20T08:18:47.779Z,45.83
2019-05-20T08:23:50.383Z,46.74
2019-05-20T08:28:52.676Z,46.32
2019-05-20T08:33:54.893Z,46.15
2019-05-20T08:38:57.027Z,45.89
2019-05-20T08:43:59.132Z,45.76
2019-05-20T08:49:01.265Z,44.73
2019-05-20T08:54:19.816Z,44.85
2019-05-20T08:59:21.958Z,44.90
2019-05-20T09:04:24.031Z,44.54
2019-05-20T09:09:26.179Z,45.23
2019-05-20T09:14:28.714Z,45.17
2019-05-20T09:19:30.924Z,45.48
2019-05-20T09:24:34.856Z,45.83
2019-05-20T09:29:38.156Z,45.76
2019-05-20T09:34:40.950Z,45.76
2019-05-20T09:39:43.049Z,46.59
2019-05-20T09:44:45.123Z,45.74
2019-05-20T09:49:47.199Z,45.70
2019-05-20T09:54:49.305Z,46.06
2019-05-20T09:59:51.373Z,46.84
2019-05-20T10:04:53.579Z,46.86
2019-05-20T10:09:55.688Z,47.40
2019-05-20T10:14:57.898Z,47.21
2019-05-20T10:20:01.203Z,47.62
2019-05-20T10:25:03.875Z,47.45
2019-05-20T10:30:06.702Z,47.69
2019-05-20T10:35:09.497Z,47.26
2019-05-20T10:40:11.992Z,46.46
2019-05-20T10:45:14.456Z,46.17
2019-05-20T10:50:16.843Z,46.13
2019-05-20T10:55:19.287Z,45.67
2019-05-20T11:00:21.576Z,45.16
2019-05-20T11:05:23.630Z,45.23
2019-05-20T11:10:25.797Z,44.93
2019-05-20T11:15:27.887Z,45.17
2019-05-20T11:20:30.010Z,45.28
2019-05-20T11:25:32.128Z,45.30
2019-05-20T11:30:34.189Z,44.44
2019-05-20T11:35:36.264Z,44.76
2019-05-20T11:40:38.329Z,45.10
2019-05-20T11:45:40.444Z,45.40
2019-05-20T11:50:42.663Z,45.20
2019-05-20T11:55:44.707Z,45.61
2019-05-20T12:00:46.750Z,46.17
2019-05-20T12:05:48.875Z,46.64
2019-05-20T12:10:51.039Z,46.64
2019-05-20T12:15:53.084Z,47.50
2019-05-20T12:20:55.175Z,48.12
2019-05-20T12:25:57.265Z,48.25
2019-05-20T12:30:59.420Z,48.38
2019-05-20T12:36:01.501Z,48.55
2019-05-20T12:41:03.544Z,48.88
2019-05-20T12:46:05.640Z,48.79
2019-05-20T12:51:07.788Z,48.59
2019-05-20T12:56:09.879Z,49.25
2019-05-20T13:01:11.981Z,49.89
2019-05-20T13:06:14.026Z,50.20
2019-05-20T13:11:16.127Z,50.43
2019-05-20T13:16:18.221Z,51.43
2019-05-20T13:21:20.257Z,51.48
2019-05-20T13:26:22.353Z,51.73
2019-05-20T13:31:24.568Z,51.84
2019-05-20T13:36:26.631Z,51.64
2019-05-20T13:41:29.123Z,52.45
2019-05-20T13:46:33.613Z,51.91
2019-05-20T13:51:38.569Z,51.69
2019-05-20T13:56:40.240Z,52.53
2019-05-20T14:01:43.997Z,53.45
2019-05-20T14:06:46.112Z,54.28
2019-05-20T14:11:48.228Z,54.74
2019-05-20T14:16:50.330Z,53.77
2019-05-20T14:21:52.402Z,52.64
2019-05-20T14:26:54.637Z,52.05
2019-05-20T14:31:56.805Z,50.29
2019-05-20T14:36:58.898Z,49.33
2019-05-20T14:42:01.064Z,49.47
2019-05-20T14:47:03.310Z,48.83
2019-05-20T14:52:05.461Z,49.29
2019-05-20T14:57:07.538Z,49.68
2019-05-20T15:02:09.842Z,48.63
2019-05-20T15:07:12.065Z,48.44
2019-05-20T15:12:14.210Z,47.64
2019-05-20T15:17:16.276Z,47.82
2019-05-20T15:22:18.430Z,48.36
2019-05-20T15:27:20.518Z,47.86
2019-05-20T15:32:22.643Z,47.73
2019-05-20T15:37:26.943Z,48.28
2019-05-20T15:42:30.483Z,48.02
2019-05-20T15:47:32.543Z,48.20
2019-05-20T15:52:34.702Z,47.78
2019-05-20T15:57:36.761Z,47.46
2019-05-20T16:02:38.862Z,46.74
2019-05-20T16:07:40.991Z,46.26
2019-05-20T16:12:43.634Z,46.37
2019-05-20T16:23:01.307Z,46.78
2019-05-20T16:28:03.560Z,47.73
2019-05-20T16:33:05.666Z,48.05
2019-05-20T16:38:07.834Z,48.22
2019-05-20T16:43:09.959Z,47.81
2019-05-20T16:48:12.284Z,48.68
2019-05-20T16:53:14.515Z,48.73
2019-05-20T16:58:18.911Z,49.37
2019-05-20T17:03:20.991Z,49.49
2019-05-20T17:08:24.629Z,50.09
2019-05-20T17:13:30.201Z,50.91
2019-05-20T17:18:32.260Z,50.63
2019-05-20T17:23:34.341Z,53.65
2019-05-20T17:28:36.527Z,54.25
2019-05-20T17:33:38.703Z,54.19
2019-05-20T17:38:43.190Z,54.87
2019-05-20T17:43:45.441Z,56.17
2019-05-20T17:48:47.516Z,56.69
2019-05-20T17:53:49.810Z,56.88
2019-05-20T17:58:51.932Z,57.23
2019-05-20T18:03:54.061Z,57.34
2019-05-20T18:08:58.120Z,57.88
2019-05-20T18:14:01.191Z,57.83
2019-05-20T18:19:03.425Z,58.32
2019-05-20T18:24:05.468Z,59.24
2019-05-20T18:29:07.637Z,59.28
2019-05-20T18:34:09.763Z,59.27
2019-05-20T18:39:11.813Z,60.07
2019-05-20T18:44:13.909Z,60.61
2019-05-20T18:49:16.024Z,60.93
2019-05-20T18:54:18.095Z,61.42
2019-05-20T18:59:20.181Z,61.73
2019-05-20T19:04:22.297Z,62.11
2019-05-20T19:09:27.797Z,62.36
2019-05-20T19:14:30.010Z,62.94
2019-05-20T19:19:36.531Z,63.18
2019-05-20T19:24:39.599Z,62.50
2019-05-20T19:29:44.471Z,62.11
2019-05-20T19:34:56.028Z,61.86
2019-05-20T19:39:58.099Z,62.18
2019-05-20T19:45:00.244Z,61.96
2019-05-20T19:50:10.677Z,61.69
2019-05-20T19:55:22.299Z,61.50
2019-05-20T20:00:35.624Z,61.59
2019-05-20T20:05:44.599Z,61.57
2019-05-20T20:10:47.958Z,61.61
2019-05-20T20:15:58.599Z,61.73
2019-05-20T20:21:38.155Z,62.07
2019-05-20T20:26:52.688Z,62.24
2019-05-20T20:31:52.443Z,62.72
2019-05-20T20:36:54.612Z,62.75
2019-05-20T20:41:56.664Z,62.88
2019-05-20T20:47:01.134Z,62.92
2019-05-20T20:52:10.606Z,62.88
2019-05-20T20:57:12.775Z,62.87
2019-05-20T21:02:14.975Z,63.05
2019-05-20T21:07:17.166Z,63.07
2019-05-20T21:12:19.234Z,63.08
2019-05-20T21:17:21.284Z,63.27
2019-05-20T21:22:23.398Z,62.96
2019-05-20T21:27:25.492Z,62.87
2019-05-20T21:32:27.624Z,62.68
2019-05-20T21:37:29.747Z,62.78
2019-05-20T21:42:31.818Z,63.05
2019-05-20T21:47:34.018Z,63.20
2019-05-20T21:52:36.115Z,63.57
2019-05-20T21:57:38.288Z,63.82
2019-05-20T22:02:40.356Z,64.24
2019-05-20T22:07:42.407Z,64.76
2019-05-20T22:12:44.571Z,64.98
2019-05-20T22:17:46.642Z,65.19
2019-05-20T22:23:08.360Z,65.51
2019-05-20T22:28:12.903Z,65.77
2019-05-20T22:33:14.446Z,66.30
2019-05-20T22:38:16.537Z,66.91
2019-05-20T22:43:18.632Z,67.34
2019-05-20T22:48:20.676Z,67.77
2019-05-20T22:53:22.815Z,67.96
2019-05-20T22:58:24.885Z,68.29
2019-05-20T23:03:26.976Z,68.54
2019-05-20T23:08:29.101Z,67.89
2019-05-20T23:13:31.264Z,67.60
2019-05-20T23:18:33.617Z,67.57
2019-05-20T23:23:35.678Z,67.25
2019-05-20T23:28:37.746Z,66.98
2019-05-20T23:33:39.848Z,67.01
2019-05-20T23:38:41.919Z,67.07
2019-05-20T23:43:44.065Z,66.98
2019-05-20T23:48:46.150Z,66.75
2019-05-20T23:53:48.194Z,66.76
2019-05-20T23:58:50.271Z,66.44
